Hjaltland — VSTY8 — position and weather

sailwx.info

Track history (hours):
 
Tides and Currents Weather Stations Pressure Air Temp Water Temp Dewpoint Dewpoint Depression Visibility Wind Speed Wind Dir Waves Ship Positions

Hjaltland

Operator: NorthLink Orkey & Shetland Ferries Ltd

Last reported at 2018-Feb-26 01:12 UTC. Time now 2018-Feb-26 02:13 UTC.
Position N 59°04' W 002°27'.

Type: Passenger vessel. MMSI: 235450000.

Date/timePositionNaut miles runAvg speedWind from/ knotsBaromVisibWave heightAir tempDewpointWater temp
2018-Feb-26 01:12N 59°04' W 002°27'313.7
2018-Feb-26 01:00N 59°02' W 002°31'611.0
2018-Feb-26 00:30N 59°01' W 002°41'713.6
2018-Feb-26 00:01N 59°01' W 002°54'2 2.7
2018-Feb-25 23:06N 58°60' W 002°58'0 0.0
2018-Feb-25 23:00N 58°60' W 002°58'713.2
2018-Feb-25 22:31N 59°00' W 002°46'6423.2
2018-Feb-25 19:44N 58°01' W 001°56'523.4
2018-Feb-25 19:31N 57°56' W 001°52'1223.1
2018-Feb-25 19:01N 57°45' W 001°45'1122.8
2018-Feb-25 18:31N 57°34' W 001°40'1122.7
2018-Feb-25 18:01N 57°23' W 001°45'1223.3
2018-Feb-25 17:31N 57°13' W 001°56'713.5
2018-Feb-25 17:00N 57°09' W 002°05'0 0.3
2018-Feb-25 16:30N 57°09' W 002°05'0 0.0
2018-Feb-25 16:00N 57°09' W 002°05'0 0.0
2018-Feb-25 15:30N 57°09' W 002°05'0 0.0
2018-Feb-25 15:00N 57°09' W 002°05'0 0.0
2018-Feb-25 14:30N 57°09' W 002°05'0 0.0
2018-Feb-25 14:00N 57°09' W 002°05'0 0.0
2018-Feb-25 13:30N 57°09' W 002°05'0 0.0
2018-Feb-25 13:00N 57°09' W 002°05'0 0.0
2018-Feb-25 12:30N 57°09' W 002°05'0 0.0
2018-Feb-25 12:00N 57°09' W 002°05'0 0.0
2018-Feb-25 11:30N 57°09' W 002°05'0 0.0
2018-Feb-25 11:00N 57°09' W 002°05'0 0.0
2018-Feb-25 10:30N 57°09' W 002°05'0 0.0
2018-Feb-25 10:00N 57°09' W 002°05'0 0.0
2018-Feb-25 09:30N 57°09' W 002°05'0 0.0
2018-Feb-25 09:00N 57°09' W 002°05'0 0.0
2018-Feb-25 08:30N 57°09' W 002°05'0 0.0
2018-Feb-25 08:00N 57°09' W 002°05'0 0.0
2018-Feb-25 07:30N 57°09' W 002°05'0 0.0
2018-Feb-25 07:00N 57°09' W 002°05'0 0.9
2018-Feb-25 06:31N 57°09' W 002°05'611.5
2018-Feb-25 05:57N 57°13' W 001°56'714.8
2018-Feb-25 05:30N 57°18' W 001°49'918.7
2018-Feb-25 05:00N 57°27' W 001°40'1019.1
2018-Feb-25 04:30N 57°36' W 001°37'918.9
2018-Feb-25 04:00N 57°45' W 001°36'11 0.4
2018-Feb-23 22:28N 57°57' W 001°37'816.4
2018-Feb-23 22:01N 57°49' W 001°37'816.3
2018-Feb-23 21:31N 57°41' W 001°37'816.1
2018-Feb-23 21:01N 57°33' W 001°38'815.2
2018-Feb-23 20:28N 57°25' W 001°41'715.5
2018-Feb-23 20:01N 57°19' W 001°49'815.1
2018-Feb-23 19:30N 57°13' W 001°56'612.3
2018-Feb-23 19:01N 57°08' W 002°04'1 1.4
2018-Feb-23 18:30N 57°09' W 002°05'0 0.0
2018-Feb-23 18:00N 57°09' W 002°05'0 0.0
2018-Feb-23 17:30N 57°09' W 002°05'0 0.0
2018-Feb-23 17:00N 57°09' W 002°05'0 0.0
2018-Feb-23 16:30N 57°09' W 002°05'0 0.0
2018-Feb-23 16:00N 57°09' W 002°05'0 0.0
2018-Feb-23 15:30N 57°09' W 002°05'0 0.0
2018-Feb-23 15:00N 57°09' W 002°05'0 0.0
2018-Feb-23 14:30N 57°09' W 002°05'0 0.0
2018-Feb-23 14:00N 57°09' W 002°05'0 0.0
2018-Feb-23 13:30N 57°09' W 002°05'0 0.0
2018-Feb-23 13:00N 57°09' W 002°05'0 0.0
2018-Feb-23 12:30N 57°09' W 002°05'0 0.0
2018-Feb-23 12:00N 57°09' W 002°05'0 0.0
2018-Feb-23 11:30N 57°09' W 002°05'0 0.0
2018-Feb-23 11:00N 57°09' W 002°05'0 0.0
2018-Feb-23 10:30N 57°09' W 002°05'0 0.0
2018-Feb-23 10:00N 57°09' W 002°05'0 0.0
2018-Feb-23 09:30N 57°09' W 002°05'0 0.0
2018-Feb-23 09:00N 57°09' W 002°05'0 0.0
2018-Feb-23 08:30N 57°09' W 002°05'0 0.0
2018-Feb-23 08:00N 57°09' W 002°05'0 0.0
2018-Feb-23 07:30N 57°09' W 002°05'0 0.0
2018-Feb-23 07:00N 57°09' W 002°05'0 0.9
2018-Feb-23 06:31N 57°09' W 002°05'611.1
2018-Feb-23 06:00N 57°13' W 001°57'713.5
2018-Feb-23 05:31N 57°18' W 001°50'714.1
2018-Feb-23 05:00N 57°23' W 001°42'713.5
2018-Feb-23 04:30N 57°30' W 001°36'815.9
2018-Feb-23 04:00N 57°37' W 001°36'918.7
2018-Feb-23 03:30N 57°47' W 001°36'16 0.6
2018-Feb-21 22:43N 58°03' W 001°36'316.0
2018-Feb-21 22:30N 57°60' W 001°36'815.6
2018-Feb-21 22:00N 57°52' W 001°36'816.0
2018-Feb-21 21:30N 57°44' W 001°37'816.2
2018-Feb-21 21:00N 57°36' W 001°37'815.7
2018-Feb-21 20:30N 57°28' W 001°40'916.0
2018-Feb-21 19:58N 57°20' W 001°47'715.9
2018-Feb-21 19:30N 57°14' W 001°54'714.5
2018-Feb-21 19:00N 57°09' W 002°03'1 2.3
2018-Feb-21 18:30N 57°09' W 002°05'0 0.0
2018-Feb-21 18:00N 57°09' W 002°05'0 0.0
2018-Feb-21 17:29N 57°09' W 002°05'0 0.0
2018-Feb-21 16:59N 57°09' W 002°05'0 0.0
2018-Feb-21 16:29N 57°09' W 002°05'0 0.0
2018-Feb-21 15:59N 57°09' W 002°05'0 0.0
2018-Feb-21 15:29N 57°09' W 002°05'0 0.0
2018-Feb-21 14:59N 57°09' W 002°05'0 0.0
2018-Feb-21 14:29N 57°09' W 002°05'0 0.0
2018-Feb-21 13:59N 57°09' W 002°05'0 0.0
2018-Feb-21 13:29N 57°09' W 002°05'0 0.0
2018-Feb-21 12:59N 57°09' W 002°05'0 0.0
2018-Feb-21 12:29N 57°09' W 002°05'0 0.0
2018-Feb-21 11:59N 57°09' W 002°05'0 0.0
2018-Feb-21 11:29N 57°09' W 002°05'0 0.0
2018-Feb-21 10:59N 57°09' W 002°05'0 0.0
2018-Feb-21 10:29N 57°09' W 002°05'0 0.9
2018-Feb-21 10:00N 57°09' W 002°05'3 6.2
2018-Feb-21 09:30N 57°07' W 002°00'2822.4
2018-Feb-21 08:14N 56°38' W 002°06'523.7
2018-Feb-21 08:00N 56°33' W 002°07'1122.7
2018-Feb-21 07:31N 56°22' W 002°12'1223.3
2018-Feb-21 07:01N 56°15' W 002°29'1223.2
2018-Feb-21 06:30N 56°09' W 002°46'1223.1
2018-Feb-21 06:00N 56°03' W 003°04'815.3
2018-Feb-21 05:30N 56°01' W 003°18'  
2018-Feb-17 13:12N 56°00' W 003°23'313.5
2018-Feb-17 13:01N 56°01' W 003°19'815.1
2018-Feb-17 12:30N 56°03' W 003°06'713.9
2018-Feb-17 12:00N 56°06' W 002°54'918.5
2018-Feb-17 11:30N 56°11' W 002°40'1122.5
2018-Feb-17 11:01N 56°19' W 002°26'1122.8
2018-Feb-17 10:30N 56°29' W 002°17'3022.3
2018-Feb-17 09:09N 56°59' W 002°03'322.5
2018-Feb-17 09:00N 57°02' W 002°03'613.0
2018-Feb-17 08:30N 57°08' W 002°04'1 1.2
2018-Feb-17 07:59N 57°09' W 002°05'0 0.0
2018-Feb-17 07:29N 57°09' W 002°05'0 0.0
2018-Feb-17 06:59N 57°09' W 002°05'0 0.9
2018-Feb-17 06:30N 57°09' W 002°05'5 9.2
2018-Feb-17 06:01N 57°12' W 001°58'2217.0
2018-Feb-17 04:43N 57°31' W 001°40'520.7
2018-Feb-17 04:30N 57°36' W 001°42'1121.1
2018-Feb-17 03:58N 57°47' W 001°45'7622.0
2018-Feb-17 00:30N 58°58' W 002°39'1020.2
2018-Feb-17 00:00N 59°01' W 002°57'2 1.1
2018-Feb-16 22:22N 58°60' W 002°58'3 7.3
2018-Feb-16 22:00N 59°01' W 002°54'13 0.7
2018-Feb-16 02:37N 59°03' W 002°28'220.5
2018-Feb-16 02:30N 59°01' W 002°31'917.6
2018-Feb-16 02:01N 59°01' W 002°48'  
Track history (hours):
 
Tides and Currents Weather Stations Pressure Air Temp Water Temp Dewpoint Dewpoint Depression Visibility Wind Speed Wind Dir Waves Ship Positions

Hjaltland

Operator: NorthLink Orkey & Shetland Ferries Ltd

Last reported at 2018-Feb-26 01:12 UTC. Time now 2018-Feb-26 02:13 UTC.
Position N 59°04' W 002°27'.

Type: Passenger vessel. MMSI: 235450000.

Date/timePositionNaut miles runAvg speedWind from/ knotsBaromVisibWave heightAir tempDewpointWater temp
2018-Feb-26 01:12N 59°04' W 002°27'313.7
2018-Feb-26 01:00N 59°02' W 002°31'611.0
2018-Feb-26 00:30N 59°01' W 002°41'713.6
2018-Feb-26 00:01N 59°01' W 002°54'2 2.7
2018-Feb-25 23:06N 58°60' W 002°58'0 0.0
2018-Feb-25 23:00N 58°60' W 002°58'713.2
2018-Feb-25 22:31N 59°00' W 002°46'6423.2
2018-Feb-25 19:44N 58°01' W 001°56'523.4
2018-Feb-25 19:31N 57°56' W 001°52'1223.1
2018-Feb-25 19:01N 57°45' W 001°45'1122.8
2018-Feb-25 18:31N 57°34' W 001°40'1122.7
2018-Feb-25 18:01N 57°23' W 001°45'1223.3
2018-Feb-25 17:31N 57°13' W 001°56'713.5
2018-Feb-25 17:00N 57°09' W 002°05'0 0.3
2018-Feb-25 16:30N 57°09' W 002°05'0 0.0
2018-Feb-25 16:00N 57°09' W 002°05'0 0.0
2018-Feb-25 15:30N 57°09' W 002°05'0 0.0
2018-Feb-25 15:00N 57°09' W 002°05'0 0.0
2018-Feb-25 14:30N 57°09' W 002°05'0 0.0
2018-Feb-25 14:00N 57°09' W 002°05'0 0.0
2018-Feb-25 13:30N 57°09' W 002°05'0 0.0
2018-Feb-25 13:00N 57°09' W 002°05'0 0.0
2018-Feb-25 12:30N 57°09' W 002°05'0 0.0
2018-Feb-25 12:00N 57°09' W 002°05'0 0.0
2018-Feb-25 11:30N 57°09' W 002°05'0 0.0
2018-Feb-25 11:00N 57°09' W 002°05'0 0.0
2018-Feb-25 10:30N 57°09' W 002°05'0 0.0
2018-Feb-25 10:00N 57°09' W 002°05'0 0.0
2018-Feb-25 09:30N 57°09' W 002°05'0 0.0
2018-Feb-25 09:00N 57°09' W 002°05'0 0.0
2018-Feb-25 08:30N 57°09' W 002°05'0 0.0
2018-Feb-25 08:00N 57°09' W 002°05'0 0.0
2018-Feb-25 07:30N 57°09' W 002°05'0 0.0
2018-Feb-25 07:00N 57°09' W 002°05'0 0.9
2018-Feb-25 06:31N 57°09' W 002°05'611.5
2018-Feb-25 05:57N 57°13' W 001°56'714.8
2018-Feb-25 05:30N 57°18' W 001°49'918.7
2018-Feb-25 05:00N 57°27' W 001°40'1019.1
2018-Feb-25 04:30N 57°36' W 001°37'918.9
2018-Feb-25 04:00N 57°45' W 001°36'11 0.4
2018-Feb-23 22:28N 57°57' W 001°37'816.4
2018-Feb-23 22:01N 57°49' W 001°37'816.3
2018-Feb-23 21:31N 57°41' W 001°37'816.1
2018-Feb-23 21:01N 57°33' W 001°38'815.2
2018-Feb-23 20:28N 57°25' W 001°41'715.5
2018-Feb-23 20:01N 57°19' W 001°49'815.1
2018-Feb-23 19:30N 57°13' W 001°56'612.3
2018-Feb-23 19:01N 57°08' W 002°04'1 1.4
2018-Feb-23 18:30N 57°09' W 002°05'0 0.0
2018-Feb-23 18:00N 57°09' W 002°05'0 0.0
2018-Feb-23 17:30N 57°09' W 002°05'0 0.0
2018-Feb-23 17:00N 57°09' W 002°05'0 0.0
2018-Feb-23 16:30N 57°09' W 002°05'0 0.0
2018-Feb-23 16:00N 57°09' W 002°05'0 0.0
2018-Feb-23 15:30N 57°09' W 002°05'0 0.0
2018-Feb-23 15:00N 57°09' W 002°05'0 0.0
2018-Feb-23 14:30N 57°09' W 002°05'0 0.0
2018-Feb-23 14:00N 57°09' W 002°05'0 0.0
2018-Feb-23 13:30N 57°09' W 002°05'0 0.0
2018-Feb-23 13:00N 57°09' W 002°05'0 0.0
2018-Feb-23 12:30N 57°09' W 002°05'0 0.0
2018-Feb-23 12:00N 57°09' W 002°05'0 0.0
2018-Feb-23 11:30N 57°09' W 002°05'0 0.0
2018-Feb-23 11:00N 57°09' W 002°05'0 0.0
2018-Feb-23 10:30N 57°09' W 002°05'0 0.0
2018-Feb-23 10:00N 57°09' W 002°05'0 0.0
2018-Feb-23 09:30N 57°09' W 002°05'0 0.0
2018-Feb-23 09:00N 57°09' W 002°05'0 0.0
2018-Feb-23 08:30N 57°09' W 002°05'0 0.0
2018-Feb-23 08:00N 57°09' W 002°05'0 0.0
2018-Feb-23 07:30N 57°09' W 002°05'0 0.0
2018-Feb-23 07:00N 57°09' W 002°05'0 0.9
2018-Feb-23 06:31N 57°09' W 002°05'611.1
2018-Feb-23 06:00N 57°13' W 001°57'713.5
2018-Feb-23 05:31N 57°18' W 001°50'714.1
2018-Feb-23 05:00N 57°23' W 001°42'713.5
2018-Feb-23 04:30N 57°30' W 001°36'815.9
2018-Feb-23 04:00N 57°37' W 001°36'918.7
2018-Feb-23 03:30N 57°47' W 001°36'16 0.6
2018-Feb-21 22:43N 58°03' W 001°36'316.0
2018-Feb-21 22:30N 57°60' W 001°36'815.6
2018-Feb-21 22:00N 57°52' W 001°36'816.0
2018-Feb-21 21:30N 57°44' W 001°37'816.2
2018-Feb-21 21:00N 57°36' W 001°37'815.7
2018-Feb-21 20:30N 57°28' W 001°40'916.0
2018-Feb-21 19:58N 57°20' W 001°47'715.9
2018-Feb-21 19:30N 57°14' W 001°54'714.5
2018-Feb-21 19:00N 57°09' W 002°03'1 2.3
2018-Feb-21 18:30N 57°09' W 002°05'0 0.0
2018-Feb-21 18:00N 57°09' W 002°05'0 0.0
2018-Feb-21 17:29N 57°09' W 002°05'0 0.0
2018-Feb-21 16:59N 57°09' W 002°05'0 0.0
2018-Feb-21 16:29N 57°09' W 002°05'0 0.0
2018-Feb-21 15:59N 57°09' W 002°05'0 0.0
2018-Feb-21 15:29N 57°09' W 002°05'0 0.0
2018-Feb-21 14:59N 57°09' W 002°05'0 0.0
2018-Feb-21 14:29N 57°09' W 002°05'0 0.0
2018-Feb-21 13:59N 57°09' W 002°05'0 0.0
2018-Feb-21 13:29N 57°09' W 002°05'0 0.0
2018-Feb-21 12:59N 57°09' W 002°05'0 0.0
2018-Feb-21 12:29N 57°09' W 002°05'0 0.0
2018-Feb-21 11:59N 57°09' W 002°05'0 0.0
2018-Feb-21 11:29N 57°09' W 002°05'0 0.0
2018-Feb-21 10:59N 57°09' W 002°05'0 0.0
2018-Feb-21 10:29N 57°09' W 002°05'0 0.9
2018-Feb-21 10:00N 57°09' W 002°05'3 6.2
2018-Feb-21 09:30N 57°07' W 002°00'2822.4
2018-Feb-21 08:14N 56°38' W 002°06'523.7
2018-Feb-21 08:00N 56°33' W 002°07'1122.7
2018-Feb-21 07:31N 56°22' W 002°12'1223.3
2018-Feb-21 07:01N 56°15' W 002°29'1223.2
2018-Feb-21 06:30N 56°09' W 002°46'1223.1
2018-Feb-21 06:00N 56°03' W 003°04'815.3
2018-Feb-21 05:30N 56°01' W 003°18'  
2018-Feb-17 13:12N 56°00' W 003°23'313.5
2018-Feb-17 13:01N 56°01' W 003°19'815.1
2018-Feb-17 12:30N 56°03' W 003°06'713.9
2018-Feb-17 12:00N 56°06' W 002°54'918.5
2018-Feb-17 11:30N 56°11' W 002°40'1122.5
2018-Feb-17 11:01N 56°19' W 002°26'1122.8
2018-Feb-17 10:30N 56°29' W 002°17'3022.3
2018-Feb-17 09:09N 56°59' W 002°03'322.5
2018-Feb-17 09:00N 57°02' W 002°03'613.0
2018-Feb-17 08:30N 57°08' W 002°04'1 1.2
2018-Feb-17 07:59N 57°09' W 002°05'0 0.0
2018-Feb-17 07:29N 57°09' W 002°05'0 0.0
2018-Feb-17 06:59N 57°09' W 002°05'0 0.9
2018-Feb-17 06:30N 57°09' W 002°05'5 9.2
2018-Feb-17 06:01N 57°12' W 001°58'2217.0
2018-Feb-17 04:43N 57°31' W 001°40'520.7
2018-Feb-17 04:30N 57°36' W 001°42'1121.1
2018-Feb-17 03:58N 57°47' W 001°45'7622.0
2018-Feb-17 00:30N 58°58' W 002°39'1020.2
2018-Feb-17 00:00N 59°01' W 002°57'2 1.1
2018-Feb-16 22:22N 58°60' W 002°58'3 7.3
2018-Feb-16 22:00N 59°01' W 002°54'13 0.7
2018-Feb-16 02:37N 59°03' W 002°28'220.5
2018-Feb-16 02:30N 59°01' W 002°31'917.6
2018-Feb-16 02:01N 59°01' W 002°48'  

Dump ship's entire track history